Time;durP1;ratioP1;P1;durP2;ratioP2;P2;SDS_P1;SDS_P2;PMS_P1;PMS_P2;Temp;Humidity;BMP_temperature;BMP_pressure;BME280_temperature;BME280_humidity;BME280_pressure;Samples;Min_cycle;Max_cycle;Signal;HPM_P1;HPM_P2
2022/07/22 00:00:19;;;;;;;;;;;;;;;21.06;29.31;97906.81;4864583;29;987;-77
2022/07/22 00:02:44;;;;;;;;;;;;;;;20.96;29.50;97907.88;4867005;29;1986;-78
2022/07/22 00:05:10;;;;;;;;;;;;;;;20.97;29.64;97920.75;4866392;29;881;-78
2022/07/22 00:07:37;;;;;;;;;;;;;;;20.88;29.56;97917.75;4866807;29;1075;-77
2022/07/22 00:10:03;;;;;;;;;;;;;;;21.12;29.36;97916.34;4866914;29;947;-77
2022/07/22 00:12:28;;;;;;;;;;;;;;;21.16;29.16;97916.25;4866406;29;965;-77
2022/07/22 00:14:54;;;;;;;;;;;;;;;21.12;29.12;97922.00;4866716;29;898;-77
2022/07/22 00:17:19;;;;;;;;;;;;;;;21.64;28.85;97912.53;4866141;29;918;-78
2022/07/22 00:19:44;;;;;;;;;;;;;;;21.77;28.75;97933.22;4866308;29;922;-78
2022/07/22 00:22:10;;;;;;;;;;;;;;;21.51;29.11;97920.19;4865926;29;1978;-77
2022/07/22 00:24:35;;;;;;;;;;;;;;;21.35;29.35;97923.03;4866100;29;1257;-78
2022/07/22 00:27:01;;;;;;;;;;;;;;;21.40;29.19;97925.31;4865974;29;1005;-78
2022/07/22 00:29:26;;;;;;;;;;;;;;;21.23;28.99;97922.50;4865328;29;1749;-77
2022/07/22 00:31:52;;;;;;;;;;;;;;;21.09;29.28;97917.25;4866365;29;913;-77
2022/07/22 00:34:17;;;;;;;;;;;;;;;21.08;29.55;97916.41;4864347;29;1630;-78
2022/07/22 00:36:43;;;;;;;;;;;;;;;21.17;29.48;97917.84;4883782;29;1043;-78
2022/07/22 00:39:08;;;;;;;;;;;;;;;21.02;29.31;97917.41;4866745;29;1419;-78
2022/07/22 00:41:33;;;;;;;;;;;;;;;20.95;29.40;97921.22;4867792;29;1907;-77
2022/07/22 00:44:03;;;;;;;;;;;;;;;21.07;29.38;97912.00;4867554;29;1041;-78
2022/07/22 00:46:29;;;;;;;;;;;;;;;21.00;29.35;97914.22;4884435;29;912;-78
2022/07/22 00:48:55;;;;;;;;;;;;;;;21.02;29.27;97911.75;4867768;29;1062;-78
2022/07/22 00:51:20;;;;;;;;;;;;;;;21.06;29.13;97924.56;4852620;29;1233;-78
2022/07/22 00:53:46;;;;;;;;;;;;;;;20.99;29.14;97912.66;4867937;29;964;-78
2022/07/22 00:56:12;;;;;;;;;;;;;;;21.06;29.12;97918.13;4882212;29;937;-78
2022/07/22 00:58:37;;;;;;;;;;;;;;;20.92;29.33;97912.81;4866848;29;1222;-78
2022/07/22 01:01:03;;;;;;;;;;;;;;;20.93;29.39;97920.06;4866449;29;1907;-78
2022/07/22 01:03:28;;;;;;;;;;;;;;;20.95;29.22;97917.59;4851225;29;1103;-77
2022/07/22 01:05:54;;;;;;;;;;;;;;;21.24;28.97;97918.47;4844916;29;1185;-78
2022/07/22 01:08:19;;;;;;;;;;;;;;;21.17;29.10;97915.78;4845034;29;1139;-78
2022/07/22 01:10:45;;;;;;;;;;;;;;;21.20;28.75;97917.75;4844825;29;1305;-78
2022/07/22 01:13:11;;;;;;;;;;;;;;;20.93;29.53;97908.75;4844636;29;920;-77
2022/07/22 01:15:36;;;;;;;;;;;;;;;20.79;29.48;97910.72;4844592;29;998;-78
2022/07/22 01:18:02;;;;;;;;;;;;;;;21.02;29.17;97911.75;4844823;29;1498;-78
2022/07/22 01:20:27;;;;;;;;;;;;;;;20.99;29.18;97912.66;4808105;29;1151;-77
2022/07/22 01:22:53;;;;;;;;;;;;;;;20.98;29.38;97899.72;4807788;29;1908;-77
2022/07/22 01:25:18;;;;;;;;;;;;;;;20.94;29.34;97904.69;4808249;29;1151;-78
2022/07/22 01:27:44;;;;;;;;;;;;;;;20.99;29.40;97896.47;4794913;29;1290;-78
2022/07/22 01:30:10;;;;;;;;;;;;;;;20.99;29.24;97907.00;4790177;29;1060;-77
2022/07/22 01:32:36;;;;;;;;;;;;;;;21.03;29.15;97899.19;4790356;29;1077;-78
2022/07/22 01:35:01;;;;;;;;;;;;;;;20.92;29.25;97895.84;4789791;29;1246;-77
2022/07/22 01:37:27;;;;;;;;;;;;;;;20.86;29.29;97898.41;4816468;29;1239;-77
2022/07/22 01:39:52;;;;;;;;;;;;;;;20.79;29.49;97899.41;4826510;29;1086;-78
2022/07/22 01:42:18;;;;;;;;;;;;;;;21.42;29.07;97900.22;4826147;29;1920;-78
2022/07/22 01:44:43;;;;;;;;;;;;;;;21.54;28.73;97902.31;4810959;29;1093;-78
2022/07/22 01:47:09;;;;;;;;;;;;;;;21.36;28.75;97887.88;4792672;29;1448;-78
2022/07/22 01:49:35;;;;;;;;;;;;;;;21.11;29.27;97892.13;4792187;29;1294;-77
2022/07/22 01:52:01;;;;;;;;;;;;;;;21.16;29.03;97887.97;4837503;29;1261;-78
2022/07/22 01:54:27;;;;;;;;;;;;;;;21.08;29.31;97888.13;4810249;29;1215;-78
2022/07/22 01:56:52;;;;;;;;;;;;;;;21.28;28.80;97893.66;4810685;29;1152;-78
2022/07/22 01:59:18;;;;;;;;;;;;;;;21.06;29.42;97901.13;4810630;29;1282;-78
2022/07/22 02:01:45;;;;;;;;;;;;;;;21.01;29.27;97888.31;4810520;29;1908;-77
2022/07/22 02:04:10;;;;;;;;;;;;;;;20.91;29.67;97891.44;4810613;29;1309;-78
2022/07/22 02:06:36;;;;;;;;;;;;;;;20.77;29.67;97896.19;4795358;29;1327;-77
2022/07/22 02:09:02;;;;;;;;;;;;;;;20.85;29.92;97896.03;4774084;30;1412;-78
2022/07/22 02:11:33;;;;;;;;;;;;;;;20.92;29.50;97890.19;4760684;30;1474;-78
2022/07/22 02:14:00;;;;;;;;;;;;;;;20.87;29.53;97887.88;4774574;30;1308;-78
2022/07/22 02:16:28;;;;;;;;;;;;;;;20.94;29.31;97891.34;4774497;30;1411;-78
2022/07/22 02:18:53;;;;;;;;;;;;;;;20.97;29.55;97895.31;4759671;30;1271;-78
2022/07/22 02:21:19;;;;;;;;;;;;;;;20.97;29.45;97889.66;4774659;30;1888;-78
2022/07/22 02:23:44;;;;;;;;;;;;;;;20.85;29.76;97893.22;4771285;30;1211;-78
2022/07/22 02:26:10;;;;;;;;;;;;;;;21.11;29.36;97892.13;4782501;29;1117;-77
2022/07/22 02:28:36;;;;;;;;;;;;;;;21.05;29.40;97893.91;4753197;30;1688;-78
2022/07/22 02:31:01;;;;;;;;;;;;;;;21.10;28.99;97890.53;4753816;30;1057;-78
2022/07/22 02:33:29;;;;;;;;;;;;;;;21.17;29.25;97893.16;4753305;30;1714;-78
2022/07/22 02:35:56;;;;;;;;;;;;;;;21.13;29.10;97897.31;4753377;30;1184;-78
2022/07/22 02:38:21;;;;;;;;;;;;;;;21.16;29.36;97897.25;4753106;30;1264;-78
2022/07/22 02:40:47;;;;;;;;;;;;;;;21.38;29.24;97899.53;4785761;29;1340;-78
2022/07/22 02:43:13;;;;;;;;;;;;;;;21.69;28.67;97897.03;4792356;29;1915;-78
2022/07/22 02:45:38;;;;;;;;;;;;;;;21.46;28.86;97895.25;4807073;29;1259;-77
2022/07/22 02:48:04;;;;;;;;;;;;;;;21.21;29.50;97899.53;4806778;29;1350;-78
2022/07/22 02:50:36;;;;;;;;;;;;;;;21.08;29.63;97898.66;4791862;29;1081;-77
2022/07/22 02:53:03;;;;;;;;;;;;;;;21.11;29.26;97892.13;4791897;29;961;-77
2022/07/22 02:55:34;;;;;;;;;;;;;;;21.22;29.13;97898.28;4804204;29;1260;-77
2022/07/22 02:58:05;;;;;;;;;;;;;;;21.10;29.60;97901.06;4806812;29;951;-78
2022/07/22 03:00:31;;;;;;;;;;;;;;;21.11;29.66;97897.78;4808475;29;1267;-78
2022/07/22 03:02:57;;;;;;;;;;;;;;;20.92;29.57;97902.28;4817865;29;1904;-78
2022/07/22 03:05:22;;;;;;;;;;;;;;;21.05;29.49;97894.69;4831489;29;986;-78
2022/07/22 03:07:52;;;;;;;;;;;;;;;21.13;29.43;97906.59;4832423;29;1272;-78
2022/07/22 03:10:19;;;;;;;;;;;;;;;20.94;29.84;97899.84;4846778;29;1285;-78
2022/07/22 03:12:45;;;;;;;;;;;;;;;20.97;29.62;97898.13;4847101;29;1379;-78
2022/07/22 03:15:11;;;;;;;;;;;;;;;21.01;29.36;97904.50;4847135;29;919;-78
2022/07/22 03:17:36;;;;;;;;;;;;;;;21.08;29.58;97899.44;4846830;29;949;-78
2022/07/22 03:20:07;;;;;;;;;;;;;;;21.01;29.54;97904.50;4846898;29;1185;-78
2022/07/22 03:22:33;;;;;;;;;;;;;;;20.97;29.71;97898.13;4831381;29;1988;-78
2022/07/22 03:24:58;;;;;;;;;;;;;;;20.99;29.58;97892.84;4831524;29;1473;-78
2022/07/22 03:27:24;;;;;;;;;;;;;;;21.33;29.17;97892.38;4856428;29;1270;-77
2022/07/22 03:29:49;;;;;;;;;;;;;;;21.67;28.59;97900.31;4831001;29;1124;-78
2022/07/22 03:32:15;;;;;;;;;;;;;;;21.53;28.79;97903.53;4846965;29;1031;-78
2022/07/22 03:34:45;;;;;;;;;;;;;;;21.20;29.30;97912.09;4846580;29;1584;-78
2022/07/22 03:37:11;;;;;;;;;;;;;;;21.10;29.34;97901.06;4846776;29;1193;-78
2022/07/22 03:39:36;;;;;;;;;;;;;;;21.26;29.23;97915.97;4862028;29;1159;-77
2022/07/22 03:42:02;;;;;;;;;;;;;;;21.29;29.49;97909.41;4846625;29;1976;-78
2022/07/22 03:44:30;;;;;;;;;;;;;;;21.13;29.67;97902.97;4812762;29;1167;-77
2022/07/22 03:46:55;;;;;;;;;;;;;;;21.00;29.70;97915.03;4797691;29;1321;-77
2022/07/22 03:49:21;;;;;;;;;;;;;;;21.13;29.56;97906.59;4812783;29;1112;-77
2022/07/22 03:51:46;;;;;;;;;;;;;;;21.11;29.54;97903.44;4812767;29;1156;-77
2022/07/22 03:54:12;;;;;;;;;;;;;;;20.96;30.11;97903.00;4812842;29;1613;-77
2022/07/22 03:56:40;;;;;;;;;;;;;;;21.04;29.71;97904.41;4813142;29;1573;-77
2022/07/22 03:59:06;;;;;;;;;;;;;;;21.02;30.01;97911.75;4797452;29;1234;-77
2022/07/22 04:01:31;;;;;;;;;;;;;;;21.09;29.78;97905.94;4794410;29;1907;-77
2022/07/22 04:03:58;;;;;;;;;;;;;;;21.03;30.17;97904.84;4799451;29;1289;-76
2022/07/22 04:06:27;;;;;;;;;;;;;;;21.04;29.75;97903.63;4812177;29;1380;-77
2022/07/22 04:09:00;;;;;;;;;;;;;;;21.06;30.21;97906.81;4812515;29;1248;-76
2022/07/22 04:11:26;;;;;;;;;;;;;;;21.57;29.42;97907.09;4812388;29;1396;-77
2022/07/22 04:13:51;;;;;;;;;;;;;;;21.58;29.32;97909.47;4808797;29;1077;-77
2022/07/22 04:16:18;;;;;;;;;;;;;;;21.42;29.39;97900.22;4778830;29;1298;-77
2022/07/22 04:18:52;;;;;;;;;;;;;;;21.17;30.04;97904.47;4793915;29;1716;-77
2022/07/22 04:21:32;;;;;;;;;;;;;;;21.10;30.01;97899.03;4794026;29;1908;-77
2022/07/22 04:24:02;;;;;;;;;;;;;;;21.25;29.93;97900.22;4791055;30;1102;-76
2022/07/22 04:26:30;;;;;;;;;;;;;;;21.03;30.50;97893.53;4776099;30;1105;-77
2022/07/22 04:28:55;;;;;;;;;;;;;;;20.91;30.46;97897.09;4775983;30;1190;-77
2022/07/22 04:31:21;;;;;;;;;;;;;;;21.21;29.93;97908.00;4773127;30;1120;-77
2022/07/22 04:33:52;;;;;;;;;;;;;;;21.27;29.85;97903.41;4737473;30;1247;-77
2022/07/22 04:36:18;;;;;;;;;;;;;;;21.20;30.00;97900.78;4737400;30;1212;-77
2022/07/22 04:38:44;;;;;;;;;;;;;;;21.17;30.40;97901.66;4737520;30;1306;-77
2022/07/22 04:41:10;;;;;;;;;;;;;;;21.19;30.10;97904.84;4740037;30;1986;-77
2022/07/22 04:43:36;;;;;;;;;;;;;;;21.26;30.00;97907.47;4755010;30;1239;-77
2022/07/22 04:46:01;;;;;;;;;;;;;;;21.05;30.73;97899.56;4743201;30;1208;-77
2022/07/22 04:48:32;;;;;;;;;;;;;;;21.05;30.58;97914.50;4757959;30;1403;-77
2022/07/22 04:50:59;;;;;;;;;;;;;;;21.25;30.47;97914.38;4754952;30;1193;-77
2022/07/22 04:53:25;;;;;;;;;;;;;;;21.14;30.47;97908.22;4754674;30;1109;-78
2022/07/22 04:55:50;;;;;;;;;;;;;;;21.34;30.02;97916.59;4733079;30;1200;-77
2022/07/22 04:58:16;;;;;;;;;;;;;;;21.19;30.29;97921.00;4719603;30;1032;-77
2022/07/22 05:00:41;;;;;;;;;;;;;;;21.36;30.28;97919.00;4734393;30;1086;-77
2022/07/22 05:03:08;;;;;;;;;;;;;;;21.21;30.42;97919.34;4751644;30;1987;-78
2022/07/22 05:05:34;;;;;;;;;;;;;;;21.14;30.69;97919.53;4784400;29;1063;-78
2022/07/22 05:07:59;;;;;;;;;;;;;;;21.01;30.97;97925.09;4775492;30;1175;-78
2022/07/22 05:10:27;;;;;;;;;;;;;;;21.06;30.81;97918.91;4775158;30;1285;-78
2022/07/22 05:12:53;;;;;;;;;;;;;;;21.06;31.19;97924.56;4775455;29;1120;-77
2022/07/22 05:15:18;;;;;;;;;;;;;;;21.27;30.61;97925.25;4771926;30;1152;-77
2022/07/22 05:17:44;;;;;;;;;;;;;;;21.28;30.74;97924.78;4789908;29;1366;-78
2022/07/22 05:20:17;;;;;;;;;;;;;;;21.17;30.59;97907.31;4790005;29;1129;-77
2022/07/22 05:22:43;;;;;;;;;;;;;;;21.22;31.02;97922.97;4823122;29;1974;-78
2022/07/22 05:25:14;;;;;;;;;;;;;;;21.09;31.18;97928.56;4825177;29;1338;-77
2022/07/22 05:27:48;;;;;;;;;;;;;;;21.34;30.71;97927.91;4810942;29;1149;-77
2022/07/22 05:30:17;;;;;;;;;;;;;;;21.21;30.98;97924.19;4826057;29;1254;-78
2022/07/22 05:32:42;;;;;;;;;;;;;;;21.30;30.90;97928.03;4796022;29;1087;-78
2022/07/22 05:35:10;;;;;;;;;;;;;;;21.27;31.04;97923.22;4825571;29;1279;-78
2022/07/22 05:37:35;;;;;;;;;;;;;;;21.27;30.86;97923.22;4826063;29;1064;-78
2022/07/22 05:40:01;;;;;;;;;;;;;;;21.08;31.19;97921.28;4795771;29;1280;-78
2022/07/22 05:42:27;;;;;;;;;;;;;;;21.20;30.91;97920.56;4807619;29;1915;-77
2022/07/22 05:44:52;;;;;;;;;;;;;;;21.33;30.56;97924.28;4792647;29;1195;-77
2022/07/22 05:47:18;;;;;;;;;;;;;;;21.36;30.60;97919.00;4773196;30;1246;-77
2022/07/22 05:49:43;;;;;;;;;;;;;;;21.28;30.89;97930.47;4786704;29;1253;-76
2022/07/22 05:52:09;;;;;;;;;;;;;;;21.39;30.51;97926.56;4789542;29;1196;-77
2022/07/22 05:54:34;;;;;;;;;;;;;;;21.41;30.77;97933.41;4784988;29;1294;-77
2022/07/22 05:57:00;;;;;;;;;;;;;;;21.13;30.90;97929.22;4756558;30;1181;-77
2022/07/22 05:59:25;;;;;;;;;;;;;;;21.18;31.24;97931.53;4771797;30;1188;-77
2022/07/22 06:01:51;;;;;;;;;;;;;;;21.30;30.72;97928.03;4757918;30;1971;-76
2022/07/22 06:04:34;;;;;;;;;;;;;;;21.38;30.53;97933.47;4753917;30;1236;-77
2022/07/22 06:07:00;;;;;;;;;;;;;;;21.36;30.42;97925.44;4753799;30;1417;-77
2022/07/22 06:09:26;;;;;;;;;;;;;;;21.28;30.76;97935.31;4753816;30;1216;-77
2022/07/22 06:11:51;;;;;;;;;;;;;;;21.36;30.29;97935.97;4754002;30;1063;-77
2022/07/22 06:14:17;;;;;;;;;;;;;;;21.44;30.23;97940.19;4768847;30;1192;-77
2022/07/22 06:16:42;;;;;;;;;;;;;;;21.28;30.82;97947.44;4771431;30;1207;-77
2022/07/22 06:19:08;;;;;;;;;;;;;;;21.20;30.73;97934.72;4786602;29;1108;-77
2022/07/22 06:21:34;;;;;;;;;;;;;;;21.13;30.69;97940.56;4789287;29;1908;-77
2022/07/22 06:24:02;;;;;;;;;;;;;;;21.21;30.63;97944.81;4823700;29;1255;-77
2022/07/22 06:26:27;;;;;;;;;;;;;;;21.10;30.81;97949.94;4878030;29;920;-77
2022/07/22 06:28:53;;;;;;;;;;;;;;;21.15;30.75;97942.97;4866276;29;1107;-77
2022/07/22 06:31:19;;;;;;;;;;;;;;;21.22;30.61;97943.56;4866273;29;1173;-77
2022/07/22 06:33:45;;;;;;;;;;;;;;;21.21;30.80;97936.31;4865714;29;1431;-77
2022/07/22 06:36:11;;;;;;;;;;;;;;;21.13;30.75;97922.78;4865675;29;1298;-77
2022/07/22 06:38:37;;;;;;;;;;;;;;;21.17;30.74;97935.59;4866210;29;1290;-77
2022/07/22 06:41:21;;;;;;;;;;;;;;;21.14;30.85;97930.03;4882478;29;1903;-76
2022/07/22 06:44:16;;;;;;;;;;;;;;;21.18;30.69;97931.53;4843406;29;1021;-77
2022/07/22 06:47:04;;;;;;;;;;;;;;;21.24;30.75;97926.13;4843457;29;1036;-77
2022/07/22 06:49:30;;;;;;;;;;;;;;;21.20;30.52;97929.06;4806508;29;1293;-77
2022/07/22 06:51:55;;;;;;;;;;;;;;;21.22;30.49;97935.06;4791773;29;942;-76
2022/07/22 06:54:22;;;;;;;;;;;;;;;21.22;30.90;97926.56;4806611;29;980;-77
2022/07/22 06:56:50;;;;;;;;;;;;;;;21.25;30.47;97928.53;4777026;29;1249;-78
2022/07/22 06:59:20;;;;;;;;;;;;;;;21.21;30.36;97927.81;4791789;29;960;-77
2022/07/22 07:01:45;;;;;;;;;;;;;;;21.32;30.14;97928.38;4806645;29;1911;-78
2022/07/22 07:04:11;;;;;;;;;;;;;;;21.42;30.16;97939.84;4776804;29;1129;-77
2022/07/22 07:06:37;;;;;;;;;;;;;;;21.51;30.00;97937.19;4776735;29;1320;-77
2022/07/22 07:09:02;;;;;;;;;;;;;;;21.14;30.87;97919.53;4806868;29;1154;-78
2022/07/22 07:11:28;;;;;;;;;;;;;;;21.31;30.18;97934.47;4755570;30;1724;-78
2022/07/22 07:13:54;;;;;;;;;;;;;;;21.41;30.03;97926.94;4741619;30;1186;-78
2022/07/22 07:16:19;;;;;;;;;;;;;;;21.37;30.05;97926.25;4771192;30;1016;-77
2022/07/22 07:18:45;;;;;;;;;;;;;;;21.38;30.08;97928.63;4756214;30;1177;-77
2022/07/22 07:21:11;;;;;;;;;;;;;;;21.32;30.46;97939.69;4782613;29;1081;-78
2022/07/22 07:23:36;;;;;;;;;;;;;;;21.16;30.44;97939.69;4755790;30;1911;-77
2022/07/22 07:26:02;;;;;;;;;;;;;;;21.26;30.19;97938.59;4775506;29;1172;-77
2022/07/22 07:28:29;;;;;;;;;;;;;;;21.31;30.13;97946.59;4791724;29;1517;-77
2022/07/22 07:30:59;;;;;;;;;;;;;;;21.32;30.35;97938.88;4806848;29;1179;-77
2022/07/22 07:33:24;;;;;;;;;;;;;;;21.33;30.13;97944.09;4806673;29;1171;-77
2022/07/22 07:35:51;;;;;;;;;;;;;;;21.52;29.99;97950.09;4810196;29;1214;-78
2022/07/22 07:38:24;;;;;;;;;;;;;;;21.30;30.14;97945.00;4798765;29;1212;-77
2022/07/22 07:40:51;;;;;;;;;;;;;;;21.25;30.20;97939.84;4798188;29;1251;-77
2022/07/22 07:43:16;;;;;;;;;;;;;;;21.21;30.36;97941.97;4755444;30;1924;-77
2022/07/22 07:45:42;;;;;;;;;;;;;;;21.44;29.91;97943.81;4756028;30;1232;-77
2022/07/22 07:48:08;;;;;;;;;;;;;;;21.44;29.78;97948.69;4774794;30;989;-78
2022/07/22 07:50:34;;;;;;;;;;;;;;;21.42;30.27;97939.84;4776638;30;1425;-77
2022/07/22 07:53:00;;;;;;;;;;;;;;;21.35;30.00;97940.03;4755872;30;1102;-77
2022/07/22 07:55:26;;;;;;;;;;;;;;;21.43;30.20;97947.09;4770940;30;1436;-77
2022/07/22 07:57:52;;;;;;;;;;;;;;;21.47;29.88;97948.59;4788503;30;1463;-77
2022/07/22 08:00:21;;;;;;;;;;;;;;;21.55;29.70;97954.84;4773496;30;1335;-77
2022/07/22 08:02:47;;;;;;;;;;;;;;;21.12;30.52;97947.47;4773179;30;1915;-77
2022/07/22 08:05:12;;;;;;;;;;;;;;;21.22;30.57;97943.56;4755319;30;1274;-77
2022/07/22 08:07:38;;;;;;;;;;;;;;;21.38;30.35;97933.47;4755732;30;1274;-77
2022/07/22 08:10:04;;;;;;;;;;;;;;;21.45;30.30;97941.78;4773081;30;1124;-77
2022/07/22 08:13:08;;;;;;;;;;;;;;;21.40;30.09;97950.81;4754813;30;1005;-77
2022/07/22 08:16:08;;;;;;;;;;;;;;;21.26;30.33;97955.59;4696018;30;970;-77
2022/07/22 08:18:34;;;;;;;;;;;;;;;21.50;29.84;97952.56;4699738;30;1252;-76
2022/07/22 08:21:00;;;;;;;;;;;;;;;21.37;30.26;97946.06;4720343;30;1177;-76
2022/07/22 08:23:39;;;;;;;;;;;;;;;21.30;30.42;97950.66;4702634;30;1987;-76
2022/07/22 08:26:04;;;;;;;;;;;;;;;21.25;30.28;97951.16;4696456;30;1048;-77
2022/07/22 08:28:30;;;;;;;;;;;;;;;21.49;30.03;97945.31;4702848;30;1143;-77
2022/07/22 08:30:56;;;;;;;;;;;;;;;21.50;29.86;97947.72;4679186;30;1270;-77
2022/07/22 08:33:21;;;;;;;;;;;;;;;21.47;30.01;97959.13;4685740;30;1046;-77
2022/07/22 08:35:47;;;;;;;;;;;;;;;21.43;29.85;97952.75;4679810;30;1265;-77
2022/07/22 08:38:13;;;;;;;;;;;;;;;21.46;29.99;97957.53;4656449;30;962;-77
2022/07/22 08:40:39;;;;;;;;;;;;;;;21.49;29.96;97950.97;4676834;30;1829;-77
2022/07/22 08:43:05;;;;;;;;;;;;;;;21.43;30.05;97959.22;4662844;30;1979;-77
2022/07/22 08:45:32;;;;;;;;;;;;;;;21.39;30.03;97952.84;4650494;30;1414;-77
2022/07/22 08:47:59;;;;;;;;;;;;;;;21.40;30.14;97959.28;4667690;30;1565;-77
2022/07/22 08:50:36;;;;;;;;;;;;;;;21.51;30.19;97954.97;4673032;30;1036;-77
2022/07/22 08:53:20;;;;;;;;;;;;;;;21.57;29.91;97946.72;4666680;30;983;-77
2022/07/22 08:55:47;;;;;;;;;;;;;;;21.41;30.33;97949.59;4634227;30;1154;-77
2022/07/22 08:58:13;;;;;;;;;;;;;;;21.46;30.08;97947.00;4653810;30;1105;-77
2022/07/22 09:00:39;;;;;;;;;;;;;;;21.36;30.10;97941.63;4658069;30;1136;-77
2022/07/22 09:03:17;;;;;;;;;;;;;;;21.27;30.41;97957.16;4711234;30;1983;-77
2022/07/22 09:05:43;;;;;;;;;;;;;;;21.64;29.81;97952.19;4735335;30;987;-77
2022/07/22 09:08:09;;;;;;;;;;;;;;;21.48;30.25;97952.22;4716360;30;1246;-77
2022/07/22 09:10:53;;;;;;;;;;;;;;;21.56;29.91;97951.59;4701975;30;1030;-77
2022/07/22 09:13:58;;;;;;;;;;;;;;;21.47;30.04;97964.78;4701918;30;1018;-77
2022/07/22 09:16:47;;;;;;;;;;;;;;;21.26;30.68;97949.94;4712391;30;1095;-77
2022/07/22 09:19:36;;;;;;;;;;;;;;;21.23;30.84;97956.47;4702064;30;1192;-77
2022/07/22 09:22:31;;;;;;;;;;;;;;;21.32;30.68;97953.03;4701872;30;1912;-77
2022/07/22 09:25:18;;;;;;;;;;;;;;;21.39;30.27;97952.06;4716490;30;1209;-77
2022/07/22 09:28:06;;;;;;;;;;;;;;;21.52;30.10;97956.53;4736520;30;1003;-77
2022/07/22 09:30:58;;;;;;;;;;;;;;;21.57;29.96;97958.03;4718980;30;980;-77
2022/07/22 09:33:24;;;;;;;;;;;;;;;21.31;30.67;97957.91;4704777;30;1178;-77
2022/07/22 09:36:02;;;;;;;;;;;;;;;21.81;29.72;97953.72;4701522;30;2801;-77
2022/07/22 09:38:28;;;;;;;;;;;;;;;21.77;29.75;97950.19;4667163;30;1019;-77
2022/07/22 09:40:55;;;;;;;;;;;;;;;21.72;29.63;97953.56;4667269;30;1162;-77
2022/07/22 09:43:20;;;;;;;;;;;;;;;21.63;29.92;97959.09;4699987;30;1915;-77
2022/07/22 09:45:47;;;;;;;;;;;;;;;21.61;30.10;97955.91;4733511;30;1098;-76
2022/07/22 09:48:13;;;;;;;;;;;;;;;21.47;30.35;97942.13;4736541;30;1177;-77
2022/07/22 09:50:55;;;;;;;;;;;;;;;21.61;30.43;97952.28;4736418;30;1129;-77
2022/07/22 09:53:43;;;;;;;;;;;;;;;21.56;30.16;97947.97;4693161;30;1033;-76
2022/07/22 09:56:11;;;;;;;;;;;;;;;21.43;30.40;97944.25;4684362;30;1502;-77
2022/07/22 09:58:37;;;;;;;;;;;;;;;21.32;30.72;97936.06;4693265;30;1218;-77
2022/07/22 10:01:09;;;;;;;;;;;;;;;21.56;30.26;97945.13;4701192;30;1113;-77
2022/07/22 10:03:36;;;;;;;;;;;;;;;21.50;30.32;97949.72;4701144;30;1920;-77
2022/07/22 10:06:03;;;;;;;;;;;;;;;21.57;30.36;97949.56;4682216;30;1254;-77
2022/07/22 10:08:29;;;;;;;;;;;;;;;21.60;30.26;97948.63;4703759;30;2044;-78
2022/07/22 10:10:58;;;;;;;;;;;;;;;21.72;30.30;97935.78;4712087;30;1221;-76
2022/07/22 10:13:23;;;;;;;;;;;;;;;21.71;30.05;97935.00;4685952;30;1005;-78
2022/07/22 10:15:48;;;;;;;;;;;;;;;21.87;29.76;97920.00;4686239;30;2133;-78
2022/07/22 10:18:18;;;;;;;;;;;;;;;21.71;30.24;97932.16;4715703;30;1584;-78
2022/07/22 10:20:46;;;;;;;;;;;;;;;21.59;30.29;97935.72;4700740;30;1126;-78
2022/07/22 10:23:12;;;;;;;;;;;;;;;21.78;30.27;97934.00;4744231;30;1978;-78
2022/07/22 10:25:53;;;;;;;;;;;;;;;21.65;30.18;97919.78;4700965;30;1362;-77
2022/07/22 10:28:22;;;;;;;;;;;;;;;21.68;30.51;97927.41;4700949;30;1178;-77
2022/07/22 10:30:48;;;;;;;;;;;;;;;21.69;30.51;97933.84;4673879;30;941;-78
2022/07/22 10:33:19;;;;;;;;;;;;;;;21.67;30.52;97937.13;4683929;30;1118;-78
2022/07/22 10:36:00;;;;;;;;;;;;;;;21.75;30.06;97937.72;4677208;30;1089;-77
2022/07/22 10:38:27;;;;;;;;;;;;;;;21.66;30.50;97938.38;4698973;30;1122;-78
2022/07/22 10:40:59;;;;;;;;;;;;;;;21.66;30.48;97924.22;4715431;30;1051;-77
2022/07/22 10:43:25;;;;;;;;;;;;;;;21.71;30.17;97934.19;4715143;30;2064;-78
2022/07/22 10:45:51;;;;;;;;;;;;;;;21.61;30.44;97919.09;4715298;30;973;-78
2022/07/22 10:48:18;;;;;;;;;;;;;;;21.81;30.04;97933.91;4700995;30;999;-78
2022/07/22 10:50:47;;;;;;;;;;;;;;;21.65;30.11;97919.78;4701077;30;998;-78
2022/07/22 10:53:13;;;;;;;;;;;;;;;21.68;30.07;97918.91;4716714;30;955;-77
2022/07/22 10:55:59;;;;;;;;;;;;;;;21.64;30.45;97928.72;4724769;29;1105;-77
2022/07/22 10:58:34;;;;;;;;;;;;;;;21.72;30.32;97918.81;4788520;29;1164;-78
2022/07/22 11:01:01;;;;;;;;;;;;;;;21.75;29.92;97924.34;4749969;30;1084;-77
2022/07/22 11:03:26;;;;;;;;;;;;;;;21.71;30.13;97918.00;4741897;30;1888;-78
2022/07/22 11:05:52;;;;;;;;;;;;;;;21.69;30.23;97931.00;4786028;29;957;-78
2022/07/22 11:08:18;;;;;;;;;;;;;;;21.88;29.96;97937.78;4786023;29;976;-77
2022/07/22 11:10:47;;;;;;;;;;;;;;;21.73;30.18;97921.19;4770875;30;1152;-77
2022/07/22 11:13:13;;;;;;;;;;;;;;;21.64;30.48;97923.84;4755874;30;940;-78
2022/07/22 11:15:38;;;;;;;;;;;;;;;21.70;30.43;97924.91;4770993;30;957;-78
2022/07/22 11:18:04;;;;;;;;;;;;;;;21.85;29.98;97928.91;4771457;30;963;-77
2022/07/22 11:20:29;;;;;;;;;;;;;;;21.66;30.14;97932.72;4770970;30;1121;-78
2022/07/22 11:22:56;;;;;;;;;;;;;;;21.60;30.75;97928.81;4771833;30;1899;-78
2022/07/22 11:25:21;;;;;;;;;;;;;;;21.66;30.32;97932.72;4788924;29;1018;-77
2022/07/22 11:27:53;;;;;;;;;;;;;;;21.75;30.04;97932.84;4776868;30;972;-78
2022/07/22 11:30:18;;;;;;;;;;;;;;;21.80;29.95;97937.16;4774093;30;1031;-77
2022/07/22 11:32:44;;;;;;;;;;;;;;;21.71;30.42;97932.16;4785433;29;919;-77
2022/07/22 11:35:12;;;;;;;;;;;;;;;21.59;30.54;97938.56;4798414;29;1212;-77
2022/07/22 11:37:38;;;;;;;;;;;;;;;21.81;30.05;97931.06;4825066;29;927;-78
2022/07/22 11:40:04;;;;;;;;;;;;;;;21.75;30.10;97934.88;4810258;29;909;-78
2022/07/22 11:42:30;;;;;;;;;;;;;;;21.73;30.38;97943.03;4809703;29;1970;-77
2022/07/22 11:44:55;;;;;;;;;;;;;;;21.77;30.40;97938.88;4809764;29;979;-78
2022/07/22 11:47:21;;;;;;;;;;;;;;;21.87;30.06;97942.66;4825112;29;992;-77
2022/07/22 11:49:47;;;;;;;;;;;;;;;21.85;29.98;97928.91;4810005;29;1034;-76
2022/07/22 11:52:13;;;;;;;;;;;;;;;21.73;30.10;97928.88;4824487;29;959;-77
2022/07/22 11:54:39;;;;;;;;;;;;;;;21.64;30.51;97923.84;4809444;29;1001;-77
2022/07/22 11:57:04;;;;;;;;;;;;;;;21.70;30.18;97927.72;4791513;30;1049;-78
2022/07/22 11:59:30;;;;;;;;;;;;;;;21.84;30.37;97921.66;4791735;30;988;-78
2022/07/22 12:01:55;;;;;;;;;;;;;;;21.58;30.74;97917.94;4791264;30;1971;-77
2022/07/22 12:04:22;;;;;;;;;;;;;;;21.67;30.18;97922.19;4776420;30;965;-77
2022/07/22 12:06:48;;;;;;;;;;;;;;;21.68;30.30;97923.78;4791621;30;1022;-77
2022/07/22 12:09:16;;;;;;;;;;;;;;;21.76;30.46;97920.28;4782921;29;1010;-77
2022/07/22 12:11:44;;;;;;;;;;;;;;;21.72;30.24;97918.81;4846254;29;1050;-77
2022/07/22 12:14:11;;;;;;;;;;;;;;;21.74;30.23;97925.59;4830775;29;958;-77
2022/07/22 12:16:37;;;;;;;;;;;;;;;21.76;30.46;97920.28;4845854;29;988;-78
2022/07/22 12:19:02;;;;;;;;;;;;;;;21.69;30.24;97925.34;4845649;29;980;-77
2022/07/22 12:21:34;;;;;;;;;;;;;;;21.62;30.63;97915.03;4845637;29;1163;-77
2022/07/22 12:24:04;;;;;;;;;;;;;;;21.63;30.49;97922.28;4808880;29;962;-78
2022/07/22 12:26:43;;;;;;;;;;;;;;;21.53;30.77;97912.03;4809302;29;953;-77
2022/07/22 12:29:31;;;;;;;;;;;;;;;21.58;30.57;97903.00;4794217;29;1001;-78
2022/07/22 12:31:59;;;;;;;;;;;;;;;21.69;30.63;97909.16;4773328;30;1079;-77
2022/07/22 12:34:37;;;;;;;;;;;;;;;21.69;30.75;97909.16;4772489;30;976;-77
2022/07/22 12:37:15;;;;;;;;;;;;;;;21.62;30.63;97898.03;4755283;30;1089;-77
2022/07/22 12:39:59;;;;;;;;;;;;;;;21.86;30.17;97907.03;4755176;30;995;-78
2022/07/22 12:42:29;;;;;;;;;;;;;;;21.79;30.52;97895.94;4755062;30;1912;-78
2022/07/22 12:45:08;;;;;;;;;;;;;;;21.90;30.04;97906.94;4740914;30;1056;-78
2022/07/22 12:47:42;;;;;;;;;;;;;;;21.57;30.55;97904.25;4754986;30;1164;-78
2022/07/22 12:50:16;;;;;;;;;;;;;;;21.70;30.43;97905.06;4737234;30;1328;-77
2022/07/22 12:52:42;;;;;;;;;;;;;;;22.00;30.13;97908.69;4737513;30;1092;-77
2022/07/22 12:55:08;;;;;;;;;;;;;;;21.73;30.59;97907.03;4756601;30;1004;-78
2022/07/22 12:57:33;;;;;;;;;;;;;;;21.88;30.29;97898.13;4772912;30;1111;-77
2022/07/22 12:59:59;;;;;;;;;;;;;;;21.76;30.23;97914.63;4757942;30;1050;-78
2022/07/22 13:02:24;;;;;;;;;;;;;;;21.67;30.63;97900.31;4772690;30;1908;-78